createdAt,value
2017-02-05T00:00:56.993Z,0
2017-02-05T00:02:05.082Z,0
2017-02-05T00:03:13.175Z,0
2017-02-05T00:04:21.266Z,0
2017-02-05T00:05:29.351Z,0
2017-02-05T00:06:37.438Z,0
2017-02-05T00:07:45.532Z,0
2017-02-05T00:08:53.620Z,0
2017-02-05T00:10:01.713Z,0
2017-02-05T00:11:09.803Z,0
2017-02-05T00:12:17.894Z,0
2017-02-05T00:13:25.978Z,0
2017-02-05T00:14:34.072Z,0
2017-02-05T00:15:42.160Z,0
2017-02-05T00:16:50.247Z,0
2017-02-05T00:17:58.336Z,0
2017-02-05T00:19:06.428Z,0
2017-02-05T00:20:14.523Z,0
2017-02-05T00:21:22.606Z,0
2017-02-05T00:22:30.699Z,0
2017-02-05T00:23:38.788Z,0
2017-02-05T00:24:46.872Z,0
2017-02-05T00:25:54.958Z,0
2017-02-05T00:27:03.054Z,0
2017-02-05T00:28:11.141Z,0
2017-02-05T00:29:19.235Z,0
2017-02-05T00:30:27.322Z,0
2017-02-05T00:31:35.414Z,0
2017-02-05T00:32:43.503Z,0
2017-02-05T00:33:51.589Z,0
2017-02-05T00:34:59.679Z,0
2017-02-05T00:36:07.769Z,0
2017-02-05T00:37:15.876Z,0
2017-02-05T00:38:23.988Z,0
2017-02-05T00:39:32.062Z,0
2017-02-05T00:40:40.154Z,0
2017-02-05T00:41:48.236Z,0
2017-02-05T00:42:56.340Z,0
2017-02-05T00:44:04.428Z,0
2017-02-05T00:45:12.513Z,0
2017-02-05T00:46:20.611Z,0
2017-02-05T00:47:28.695Z,0
2017-02-05T00:48:36.780Z,0
2017-02-05T00:49:44.873Z,0
2017-02-05T00:50:52.963Z,0
2017-02-05T00:52:01.052Z,0
2017-02-05T00:53:09.141Z,0
2017-02-05T00:54:17.234Z,0
2017-02-05T00:55:25.319Z,0
2017-02-05T00:56:33.407Z,0
2017-02-05T00:57:41.496Z,0
2017-02-05T00:58:49.586Z,0
2017-02-05T00:59:57.664Z,0
2017-02-05T01:01:05.762Z,0
2017-02-05T01:02:13.850Z,0
2017-02-05T01:03:21.938Z,0
2017-02-05T01:04:30.033Z,0
2017-02-05T01:05:38.123Z,0
2017-02-05T01:06:46.215Z,0
2017-02-05T01:07:54.305Z,0
2017-02-05T01:09:02.391Z,0
2017-02-05T01:10:10.487Z,0
2017-02-05T01:11:18.581Z,0
2017-02-05T01:12:26.663Z,0
2017-02-05T01:13:34.755Z,0
2017-02-05T01:14:42.844Z,0
2017-02-05T01:15:50.941Z,0
2017-02-05T01:16:59.022Z,0
2017-02-05T01:18:07.115Z,0
2017-02-05T01:19:15.205Z,0
2017-02-05T01:20:23.288Z,0
2017-02-05T01:21:31.382Z,0
2017-02-05T01:22:39.470Z,0
2017-02-05T01:23:47.556Z,0
2017-02-05T01:24:55.652Z,0
2017-02-05T01:26:03.745Z,0
2017-02-05T01:27:11.836Z,0
2017-02-05T01:28:19.925Z,0
2017-02-05T01:29:28.018Z,0
2017-02-05T01:30:36.166Z,0
2017-02-05T01:31:44.200Z,0
2017-02-05T01:32:52.287Z,0
2017-02-05T01:34:00.379Z,0
2017-02-05T01:35:08.465Z,0
2017-02-05T01:36:16.550Z,0
2017-02-05T01:37:24.644Z,0
2017-02-05T01:38:32.736Z,0
2017-02-05T01:39:40.822Z,0
2017-02-05T01:40:48.910Z,0
2017-02-05T01:41:57.007Z,0
2017-02-05T01:43:05.096Z,0
2017-02-05T01:44:13.190Z,0
2017-02-05T01:45:21.285Z,0
2017-02-05T01:46:29.375Z,0
2017-02-05T01:47:37.543Z,0
2017-02-05T01:48:45.557Z,0
2017-02-05T01:49:53.648Z,0
2017-02-05T01:51:01.737Z,0
2017-02-05T01:52:09.819Z,0
2017-02-05T01:53:17.909Z,0
2017-02-05T01:54:26.002Z,0
2017-02-05T01:55:34.089Z,0
2017-02-05T01:56:42.178Z,0
2017-02-05T01:57:50.270Z,0
2017-02-05T01:58:58.359Z,0
2017-02-05T02:00:06.447Z,0
2017-02-05T02:01:14.538Z,0
2017-02-05T02:02:22.627Z,0
2017-02-05T02:03:30.709Z,0
2017-02-05T02:04:38.800Z,0
2017-02-05T02:05:46.898Z,0
2017-02-05T02:06:54.984Z,0
2017-02-05T02:08:03.069Z,0
2017-02-05T02:09:11.171Z,0
2017-02-05T02:10:19.256Z,0
2017-02-05T02:11:27.340Z,0
2017-02-05T02:12:35.430Z,0
2017-02-05T02:13:43.519Z,0
2017-02-05T02:14:51.608Z,0
2017-02-05T02:15:59.691Z,0
2017-02-05T02:17:07.784Z,0
2017-02-05T02:18:15.872Z,0
2017-02-05T02:19:23.960Z,0
2017-02-05T02:20:32.049Z,0
2017-02-05T02:21:40.141Z,0
2017-02-05T02:22:48.223Z,0
2017-02-05T02:23:56.315Z,0
2017-02-05T02:25:04.406Z,0
2017-02-05T02:26:12.497Z,0
2017-02-05T02:27:20.581Z,0
2017-02-05T02:28:28.674Z,0
2017-02-05T02:29:36.764Z,0
2017-02-05T02:30:44.853Z,0
2017-02-05T02:31:52.937Z,0
2017-02-05T02:33:01.027Z,0
2017-02-05T02:34:09.120Z,0
2017-02-05T02:35:17.204Z,0
2017-02-05T02:36:25.297Z,0
2017-02-05T02:37:33.388Z,0
2017-02-05T02:38:41.472Z,0
2017-02-05T02:39:49.573Z,0
2017-02-05T02:40:57.666Z,0
2017-02-05T02:42:05.760Z,0
2017-02-05T02:43:13.843Z,0
2017-02-05T02:44:21.931Z,0
2017-02-05T02:45:30.027Z,0
2017-02-05T02:46:38.119Z,0
2017-02-05T02:47:46.208Z,0
2017-02-05T02:48:54.301Z,0
2017-02-05T02:50:02.388Z,0
2017-02-05T02:51:10.515Z,0
2017-02-05T02:52:18.570Z,0
2017-02-05T02:53:26.658Z,0
2017-02-05T02:54:34.746Z,0
2017-02-05T02:55:42.830Z,0
2017-02-05T02:56:50.921Z,0
2017-02-05T02:57:59.011Z,0
2017-02-05T02:59:07.094Z,0
2017-02-05T03:00:15.188Z,0
2017-02-05T03:01:23.277Z,0
2017-02-05T03:02:31.358Z,0
2017-02-05T03:03:39.451Z,0
2017-02-05T03:04:47.539Z,0
2017-02-05T03:05:55.626Z,0
2017-02-05T03:07:03.721Z,0
2017-02-05T03:08:11.813Z,0
2017-02-05T03:09:19.899Z,0
2017-02-05T03:10:27.983Z,0
2017-02-05T03:11:36.080Z,0
2017-02-05T03:12:44.173Z,0
2017-02-05T03:13:52.257Z,0
2017-02-05T03:15:00.346Z,0
2017-02-05T03:16:08.441Z,0
2017-02-05T03:17:16.534Z,0
2017-02-05T03:18:24.624Z,0
2017-02-05T03:19:32.713Z,0
2017-02-05T03:20:40.793Z,0
2017-02-05T03:21:48.891Z,0
2017-02-05T03:22:56.984Z,0
2017-02-05T03:24:05.072Z,0
2017-02-05T03:25:13.158Z,0
2017-02-05T03:26:21.246Z,0
2017-02-05T03:27:29.341Z,0
2017-02-05T03:28:37.436Z,0
2017-02-05T03:29:45.523Z,0
2017-02-05T03:30:53.605Z,0
2017-02-05T03:32:01.697Z,0
2017-02-05T03:33:09.781Z,0
2017-02-05T03:34:17.880Z,0
2017-02-05T03:35:25.963Z,0
2017-02-05T03:36:34.049Z,0
2017-02-05T03:37:42.138Z,0
2017-02-05T03:38:50.230Z,0
2017-02-05T03:39:58.324Z,0
2017-02-05T03:41:06.417Z,0
2017-02-05T03:42:14.508Z,0
2017-02-05T03:43:22.591Z,0
2017-02-05T03:44:30.676Z,0
2017-02-05T03:45:38.773Z,0
2017-02-05T03:46:46.854Z,0
2017-02-05T03:47:54.944Z,0
2017-02-05T03:49:03.032Z,0
2017-02-05T03:50:11.120Z,0
2017-02-05T03:51:19.215Z,0
2017-02-05T03:52:27.301Z,0
2017-02-05T03:53:35.387Z,0
2017-02-05T03:54:43.477Z,0
2017-02-05T03:55:51.563Z,0
2017-02-05T03:56:59.649Z,0
2017-02-05T03:58:07.742Z,0
2017-02-05T03:59:15.904Z,0
2017-02-05T04:00:23.915Z,0
2017-02-05T04:01:31.998Z,0
2017-02-05T04:02:40.088Z,0
2017-02-05T04:03:48.175Z,0
2017-02-05T04:04:56.264Z,0
2017-02-05T04:06:04.347Z,0
2017-02-05T04:07:12.436Z,0
2017-02-05T04:08:20.526Z,0
2017-02-05T04:09:28.609Z,0
2017-02-05T04:10:36.697Z,0
2017-02-05T04:11:44.786Z,0
2017-02-05T04:12:52.871Z,0
2017-02-05T04:14:00.961Z,0
2017-02-05T04:15:09.054Z,0
2017-02-05T04:16:17.170Z,0
2017-02-05T04:17:25.229Z,0
2017-02-05T04:18:33.318Z,0
2017-02-05T04:19:41.413Z,0
2017-02-05T04:20:49.498Z,0
2017-02-05T04:21:57.582Z,0
2017-02-05T04:23:05.674Z,0
2017-02-05T04:24:13.766Z,0
2017-02-05T04:25:21.852Z,0
2017-02-05T04:26:29.940Z,0
2017-02-05T04:27:38.032Z,0
2017-02-05T04:28:46.119Z,0
2017-02-05T04:29:54.205Z,0
2017-02-05T04:31:02.295Z,0
2017-02-05T04:32:10.385Z,0
2017-02-05T04:33:18.473Z,0
2017-02-05T04:34:26.574Z,0
2017-02-05T04:35:34.648Z,0
2017-02-05T04:36:42.730Z,0
2017-02-05T04:37:50.816Z,0
2017-02-05T04:38:58.909Z,0
2017-02-05T04:40:07.000Z,0
2017-02-05T04:41:15.084Z,0
2017-02-05T04:42:23.177Z,0
2017-02-05T04:43:31.266Z,0
2017-02-05T04:44:39.352Z,0
2017-02-05T04:45:47.446Z,0
2017-02-05T04:46:55.535Z,0
2017-02-05T04:48:03.623Z,0
2017-02-05T04:49:11.706Z,0
2017-02-05T04:50:19.797Z,0
2017-02-05T04:51:27.883Z,0
2017-02-05T04:52:35.969Z,0
2017-02-05T04:53:44.053Z,0
2017-02-05T04:54:52.151Z,0
2017-02-05T04:56:00.238Z,0
2017-02-05T04:57:08.317Z,0
2017-02-05T04:58:16.417Z,0
2017-02-05T04:59:24.503Z,0
2017-02-05T05:00:32.589Z,0
2017-02-05T05:01:40.679Z,0
2017-02-05T05:02:48.764Z,0
2017-02-05T05:03:56.850Z,0
2017-02-05T05:05:04.935Z,0
2017-02-05T05:06:13.026Z,0
2017-02-05T05:07:21.121Z,0
2017-02-05T05:08:29.200Z,0
2017-02-05T05:09:37.291Z,0
2017-02-05T05:10:45.376Z,0
2017-02-05T05:11:53.463Z,0
2017-02-05T05:13:01.550Z,0
2017-02-05T05:14:09.633Z,0
2017-02-05T05:15:17.721Z,0
2017-02-05T05:16:25.804Z,0
2017-02-05T05:17:33.888Z,0
2017-02-05T05:18:41.981Z,0
2017-02-05T05:19:50.067Z,0
2017-02-05T05:20:58.151Z,0
2017-02-05T05:22:06.241Z,0
2017-02-05T05:23:14.333Z,0
2017-02-05T05:24:22.409Z,0
2017-02-05T05:25:30.495Z,0
2017-02-05T05:26:38.590Z,0
2017-02-05T05:27:46.673Z,0
2017-02-05T05:28:54.760Z,0
2017-02-05T05:30:02.854Z,0
2017-02-05T05:31:10.938Z,0
2017-02-05T05:32:19.033Z,0
2017-02-05T05:33:27.112Z,0
2017-02-05T05:34:35.204Z,0
2017-02-05T05:35:43.280Z,0
2017-02-05T05:36:51.369Z,0
2017-02-05T05:37:59.465Z,0
2017-02-05T05:39:07.551Z,0
2017-02-05T05:40:15.638Z,0
2017-02-05T05:41:23.728Z,0
2017-02-05T05:42:31.818Z,0
2017-02-05T05:43:39.904Z,0
2017-02-05T05:44:47.992Z,0
2017-02-05T05:45:56.084Z,0
2017-02-05T05:47:04.172Z,0
2017-02-05T05:48:12.252Z,0
2017-02-05T05:49:20.343Z,0
2017-02-05T05:50:28.430Z,0
2017-02-05T05:51:36.514Z,0
2017-02-05T05:52:44.598Z,0
2017-02-05T05:53:52.694Z,0
2017-02-05T05:55:01.007Z,0
2017-02-05T05:56:08.869Z,0
2017-02-05T05:57:16.958Z,0
2017-02-05T05:58:25.043Z,0
2017-02-05T05:59:33.126Z,0
2017-02-05T06:00:41.209Z,0
2017-02-05T06:01:49.301Z,0
2017-02-05T06:02:57.384Z,0
2017-02-05T06:04:05.467Z,0
2017-02-05T06:05:13.560Z,0
2017-02-05T06:06:21.656Z,0
2017-02-05T06:07:29.747Z,0
2017-02-05T06:08:37.824Z,0
2017-02-05T06:09:45.919Z,0
2017-02-05T06:10:54.005Z,0
2017-02-05T06:12:02.086Z,0
2017-02-05T06:13:10.176Z,0
2017-02-05T06:14:18.264Z,0
2017-02-05T06:15:26.801Z,0
2017-02-05T06:16:34.430Z,0
2017-02-05T06:17:42.519Z,0
2017-02-05T06:18:50.607Z,0
2017-02-05T06:19:58.698Z,0
2017-02-05T06:21:06.789Z,0
2017-02-05T06:22:14.873Z,0
2017-02-05T06:23:22.958Z,0
2017-02-05T06:24:31.051Z,0
2017-02-05T06:25:39.135Z,0
2017-02-05T06:26:47.220Z,0
2017-02-05T06:27:55.390Z,0
2017-02-05T06:29:03.390Z,0
2017-02-05T06:30:11.479Z,0
2017-02-05T06:31:19.566Z,0
2017-02-05T06:32:27.647Z,0
2017-02-05T06:33:35.739Z,0
2017-02-05T06:34:43.823Z,0
2017-02-05T06:35:51.904Z,0
2017-02-05T06:36:59.993Z,0
2017-02-05T06:38:08.075Z,0
2017-02-05T06:39:16.315Z,0
2017-02-05T06:40:24.257Z,0
2017-02-05T06:41:32.345Z,0
2017-02-05T06:42:40.433Z,0
2017-02-05T06:43:48.514Z,0
2017-02-05T06:44:56.727Z,0
2017-02-05T06:46:04.688Z,0
2017-02-05T06:47:12.770Z,0
2017-02-05T06:48:20.864Z,0
2017-02-05T06:49:28.951Z,0
2017-02-05T06:50:37.031Z,4
2017-02-05T06:51:45.121Z,4
2017-02-05T06:52:53.208Z,4
2017-02-05T06:54:01.296Z,4
2017-02-05T06:55:09.380Z,4
2017-02-05T06:56:17.472Z,4
2017-02-05T06:57:25.549Z,4
2017-02-05T06:58:33.633Z,4
2017-02-05T06:59:41.715Z,4
2017-02-05T07:00:49.802Z,4
2017-02-05T07:01:57.902Z,4
2017-02-05T07:03:05.978Z,4
2017-02-05T07:04:14.070Z,4
2017-02-05T07:05:22.157Z,4
2017-02-05T07:06:30.242Z,4
2017-02-05T07:07:38.323Z,4
2017-02-05T07:08:46.411Z,0
2017-02-05T07:09:54.497Z,0
2017-02-05T07:11:02.580Z,0
2017-02-05T07:12:10.668Z,0
2017-02-05T07:13:18.762Z,0
2017-02-05T07:14:26.836Z,0
2017-02-05T07:15:34.957Z,4
2017-02-05T07:16:43.014Z,4
2017-02-05T07:17:51.097Z,4
2017-02-05T07:18:59.186Z,0
2017-02-05T07:20:07.272Z,4
2017-02-05T07:21:15.355Z,4
2017-02-05T07:22:23.445Z,4
2017-02-05T07:23:31.723Z,0
2017-02-05T07:24:39.616Z,0
2017-02-05T07:25:47.697Z,4
2017-02-05T07:26:55.784Z,4
2017-02-05T07:28:03.870Z,0
2017-02-05T07:29:11.969Z,0
2017-02-05T07:30:20.044Z,4
2017-02-05T07:31:28.125Z,4
2017-02-05T07:32:36.215Z,4
2017-02-05T07:33:44.302Z,4
2017-02-05T07:34:52.383Z,4
2017-02-05T07:36:00.473Z,4
2017-02-05T07:37:08.562Z,4
2017-02-05T07:38:16.642Z,4
2017-02-05T07:39:24.726Z,4
2017-02-05T07:40:32.816Z,4
2017-02-05T07:41:40.901Z,4
2017-02-05T07:42:48.985Z,4
2017-02-05T07:43:57.077Z,4
2017-02-05T07:45:05.165Z,4
2017-02-05T07:46:13.245Z,4
2017-02-05T07:47:21.331Z,4
2017-02-05T07:48:29.422Z,4
2017-02-05T07:49:37.503Z,0
2017-02-05T07:50:45.587Z,4
2017-02-05T07:51:53.679Z,4
2017-02-05T07:53:01.765Z,4
2017-02-05T07:54:09.851Z,4
2017-02-05T07:55:18.134Z,4
2017-02-05T07:56:26.027Z,4
2017-02-05T07:57:34.117Z,4
2017-02-05T07:58:42.203Z,4
2017-02-05T07:59:50.288Z,4
2017-02-05T08:00:58.372Z,4
2017-02-05T08:02:06.458Z,4
2017-02-05T08:03:14.548Z,4
2017-02-05T08:04:22.635Z,4
2017-02-05T08:05:30.722Z,8
2017-02-05T08:06:38.856Z,8
2017-02-05T08:07:46.893Z,8
2017-02-05T08:08:54.979Z,8
2017-02-05T08:10:03.058Z,8
2017-02-05T08:11:11.152Z,8
2017-02-05T08:12:19.243Z,4
2017-02-05T08:13:27.323Z,4
2017-02-05T08:14:35.410Z,8
2017-02-05T08:15:43.502Z,4
2017-02-05T08:16:51.590Z,8
2017-02-05T08:17:59.670Z,8
2017-02-05T08:19:07.766Z,4
2017-02-05T08:20:15.844Z,8
2017-02-05T08:21:23.939Z,8
2017-02-05T08:22:32.025Z,8
2017-02-05T08:23:40.118Z,4
2017-02-05T08:24:48.200Z,4
2017-02-05T08:25:56.294Z,4
2017-02-05T08:27:04.383Z,4
2017-02-05T08:28:12.469Z,4
2017-02-05T08:29:20.555Z,4
2017-02-05T08:30:28.645Z,4
2017-02-05T08:31:36.734Z,8
2017-02-05T08:32:44.819Z,8
2017-02-05T08:33:52.903Z,8
2017-02-05T08:35:01.038Z,8
2017-02-05T08:36:09.082Z,4
2017-02-05T08:37:17.166Z,8
2017-02-05T08:38:25.253Z,8
2017-02-05T08:39:33.342Z,8
2017-02-05T08:40:41.429Z,8
2017-02-05T08:41:49.511Z,8
2017-02-05T08:42:57.604Z,8
2017-02-05T08:44:05.694Z,8
2017-02-05T08:45:13.775Z,12
2017-02-05T08:46:21.860Z,12
2017-02-05T08:47:29.959Z,8
2017-02-05T08:48:38.040Z,12
2017-02-05T08:49:46.128Z,12
2017-02-05T08:50:54.217Z,12
2017-02-05T08:52:02.303Z,12
2017-02-05T08:53:10.388Z,12
2017-02-05T08:54:18.472Z,8
2017-02-05T08:55:26.565Z,8
2017-02-05T08:56:34.655Z,12
2017-02-05T08:57:42.739Z,8
2017-02-05T08:58:50.832Z,8
2017-02-05T08:59:58.923Z,8
2017-02-05T09:01:07.004Z,8
2017-02-05T09:02:15.096Z,12
2017-02-05T09:03:23.183Z,12
2017-02-05T09:04:31.270Z,8
2017-02-05T09:05:39.350Z,8
2017-02-05T09:06:47.440Z,12
2017-02-05T09:07:55.532Z,12
2017-02-05T09:09:03.616Z,8
2017-02-05T09:10:11.702Z,8
2017-02-05T09:11:19.786Z,8
2017-02-05T09:12:27.868Z,8
2017-02-05T09:13:35.953Z,8
2017-02-05T09:14:44.044Z,12
2017-02-05T09:15:52.128Z,8
2017-02-05T09:17:00.217Z,8
2017-02-05T09:18:08.312Z,8
2017-02-05T09:19:16.402Z,8
2017-02-05T09:20:24.487Z,4
2017-02-05T09:21:32.569Z,8
2017-02-05T09:22:40.658Z,8
2017-02-05T09:23:48.743Z,8
2017-02-05T09:24:56.834Z,8
2017-02-05T09:26:04.923Z,8
2017-02-05T09:27:13.010Z,8
2017-02-05T09:28:21.097Z,8
2017-02-05T09:29:29.183Z,8
2017-02-05T09:30:37.289Z,12
2017-02-05T09:31:45.355Z,8
2017-02-05T09:32:53.442Z,12
2017-02-05T09:34:01.529Z,12
2017-02-05T09:35:09.621Z,12
2017-02-05T09:36:17.715Z,12
2017-02-05T09:37:25.805Z,12
2017-02-05T09:38:33.895Z,16
2017-02-05T09:39:41.984Z,12
2017-02-05T09:40:50.072Z,16
2017-02-05T09:41:58.162Z,16
2017-02-05T09:43:06.252Z,12
2017-02-05T09:44:14.338Z,12
2017-02-05T09:45:22.426Z,12
2017-02-05T09:46:30.508Z,12
2017-02-05T09:47:38.644Z,12
2017-02-05T09:48:46.678Z,12
2017-02-05T09:49:54.770Z,12
2017-02-05T09:51:02.856Z,16
2017-02-05T09:52:10.940Z,16
2017-02-05T09:53:19.032Z,16
2017-02-05T09:54:27.118Z,20
2017-02-05T09:55:35.203Z,16
2017-02-05T09:56:43.287Z,20
2017-02-05T09:57:51.373Z,20
2017-02-05T09:58:59.465Z,20
2017-02-05T10:00:07.549Z,20
2017-02-05T10:01:15.637Z,20
2017-02-05T10:02:23.734Z,20
2017-02-05T10:03:31.825Z,20
2017-02-05T10:04:39.911Z,20
2017-02-05T10:05:48.002Z,24
2017-02-05T10:06:56.085Z,28
2017-02-05T10:08:04.178Z,28
2017-02-05T10:09:12.261Z,28
2017-02-05T10:10:20.350Z,32
2017-02-05T10:11:28.436Z,32
2017-02-05T10:12:36.519Z,32
2017-02-05T10:13:44.607Z,32
2017-02-05T10:14:52.694Z,32
2017-02-05T10:16:00.776Z,28
2017-02-05T10:17:08.867Z,32
2017-02-05T10:18:16.954Z,32
2017-02-05T10:19:25.041Z,36
2017-02-05T10:20:33.124Z,36
2017-02-05T10:21:41.215Z,36
2017-02-05T10:22:49.300Z,36
2017-02-05T10:23:57.393Z,36
2017-02-05T10:25:05.480Z,36
2017-02-05T10:26:13.569Z,32
2017-02-05T10:27:21.659Z,28
2017-02-05T10:28:29.746Z,28
2017-02-05T10:29:37.840Z,28
2017-02-05T10:30:45.931Z,28
2017-02-05T10:31:54.023Z,28
2017-02-05T10:33:02.112Z,24
2017-02-05T10:34:10.203Z,28
2017-02-05T10:35:18.284Z,24
2017-02-05T10:36:26.371Z,24
2017-02-05T10:37:34.461Z,24
2017-02-05T10:38:42.549Z,28
2017-02-05T10:39:50.634Z,28
2017-02-05T10:40:58.722Z,32
2017-02-05T10:42:06.815Z,32
2017-02-05T10:43:14.901Z,36
2017-02-05T10:44:22.988Z,36
2017-02-05T10:45:31.079Z,36
2017-02-05T10:46:39.170Z,36
2017-02-05T10:47:47.259Z,36
2017-02-05T10:48:55.350Z,28
2017-02-05T10:50:03.445Z,32
2017-02-05T10:51:11.526Z,28
2017-02-05T10:52:19.612Z,28
2017-02-05T10:53:27.701Z,28
2017-02-05T10:54:35.787Z,24
2017-02-05T10:55:43.872Z,24
2017-02-05T10:56:51.961Z,24
2017-02-05T10:58:00.050Z,24
2017-02-05T10:59:08.133Z,24
2017-02-05T11:00:16.221Z,24
2017-02-05T11:01:24.320Z,24
2017-02-05T11:02:32.401Z,28
2017-02-05T11:03:40.489Z,28
2017-02-05T11:04:48.583Z,28
2017-02-05T11:05:56.670Z,32
2017-02-05T11:07:04.764Z,32
2017-02-05T11:08:12.852Z,32
2017-02-05T11:09:20.942Z,32
2017-02-05T11:10:29.029Z,36
2017-02-05T11:11:37.113Z,40
2017-02-05T11:12:45.282Z,36
2017-02-05T11:13:53.293Z,40
2017-02-05T11:15:01.393Z,40
2017-02-05T11:16:09.472Z,40
2017-02-05T11:17:17.558Z,36
2017-02-05T11:18:25.649Z,36
2017-02-05T11:19:33.729Z,36
2017-02-05T11:20:41.820Z,36
2017-02-05T11:21:49.905Z,32
2017-02-05T11:22:57.992Z,32
2017-02-05T11:24:06.079Z,32
2017-02-05T11:25:14.167Z,32
2017-02-05T11:26:22.250Z,32
2017-02-05T11:27:30.336Z,32
2017-02-05T11:28:38.431Z,28
2017-02-05T11:29:46.523Z,28
2017-02-05T11:30:54.610Z,28
2017-02-05T11:32:02.697Z,28
2017-02-05T11:33:10.780Z,28
2017-02-05T11:34:18.870Z,28
2017-02-05T11:35:26.951Z,28
2017-02-05T11:36:35.042Z,24
2017-02-05T11:37:43.130Z,28
2017-02-05T11:38:51.221Z,28
2017-02-05T11:39:59.312Z,28
2017-02-05T11:41:07.401Z,28
2017-02-05T11:42:15.492Z,28
2017-02-05T11:43:23.586Z,28
2017-02-05T11:44:31.668Z,24
2017-02-05T11:45:39.761Z,24
2017-02-05T11:46:47.840Z,28
2017-02-05T11:47:55.932Z,28
2017-02-05T11:49:04.018Z,28
2017-02-05T11:50:12.109Z,28
2017-02-05T11:51:20.206Z,24
2017-02-05T11:52:28.300Z,24
2017-02-05T11:53:36.379Z,28
2017-02-05T11:54:44.460Z,24
2017-02-05T11:55:52.559Z,24
2017-02-05T11:57:00.643Z,24
2017-02-05T11:58:08.729Z,20
2017-02-05T11:59:16.812Z,24
2017-02-05T12:00:24.901Z,20
2017-02-05T12:01:32.985Z,20
2017-02-05T12:02:41.078Z,20
2017-02-05T12:03:49.166Z,20
2017-02-05T12:04:57.260Z,24
2017-02-05T12:06:05.342Z,28
2017-02-05T12:07:13.428Z,28
2017-02-05T12:08:21.516Z,28
2017-02-05T12:09:29.604Z,28
2017-02-05T12:10:37.687Z,28
2017-02-05T12:11:45.781Z,24
2017-02-05T12:12:53.867Z,28
2017-02-05T12:14:01.953Z,24
2017-02-05T12:15:10.044Z,24
2017-02-05T12:16:18.190Z,24
2017-02-05T12:17:26.223Z,24
2017-02-05T12:18:34.306Z,24
2017-02-05T12:19:42.396Z,20
2017-02-05T12:20:50.491Z,24
2017-02-05T12:21:58.578Z,24
2017-02-05T12:23:06.666Z,24
2017-02-05T12:24:14.748Z,24
2017-02-05T12:25:22.841Z,24
2017-02-05T12:26:30.928Z,24
2017-02-05T12:27:39.014Z,20
2017-02-05T12:28:47.103Z,20
2017-02-05T12:29:55.188Z,20
2017-02-05T12:31:03.287Z,20
2017-02-05T12:32:11.378Z,16
2017-02-05T12:33:19.515Z,20
2017-02-05T12:34:27.545Z,16
2017-02-05T12:35:35.643Z,16
2017-02-05T12:36:43.731Z,16
2017-02-05T12:37:51.808Z,16
2017-02-05T12:38:59.900Z,12
2017-02-05T12:40:07.988Z,12
2017-02-05T12:41:16.075Z,16
2017-02-05T12:42:24.156Z,12
2017-02-05T12:43:32.248Z,12
2017-02-05T12:44:40.337Z,16
2017-02-05T12:45:48.420Z,12
2017-02-05T12:46:56.508Z,16
2017-02-05T12:48:04.594Z,16
2017-02-05T12:49:12.674Z,20
2017-02-05T12:50:20.761Z,20
2017-02-05T12:51:28.850Z,16
2017-02-05T12:52:36.935Z,16
2017-02-05T12:53:45.024Z,20
2017-02-05T12:54:53.114Z,16
2017-02-05T12:56:01.202Z,16
2017-02-05T12:57:09.294Z,16
2017-02-05T12:58:17.368Z,20
2017-02-05T12:59:25.458Z,16
2017-02-05T13:00:33.547Z,16
2017-02-05T13:01:41.653Z,16
2017-02-05T13:02:49.723Z,20
2017-02-05T13:03:57.828Z,16
2017-02-05T13:05:05.895Z,20
2017-02-05T13:06:13.983Z,16
2017-02-05T13:07:22.076Z,20
2017-02-05T13:08:30.182Z,20
2017-02-05T13:09:38.243Z,20
2017-02-05T13:10:46.329Z,20
2017-02-05T13:11:54.420Z,20
2017-02-05T13:13:02.502Z,16
2017-02-05T13:14:10.588Z,20
2017-02-05T13:15:18.686Z,16
2017-02-05T13:16:26.907Z,16
2017-02-05T13:17:34.855Z,16
2017-02-05T13:18:42.945Z,16
2017-02-05T13:19:51.029Z,16
2017-02-05T13:20:59.114Z,16
2017-02-05T13:22:07.201Z,20
2017-02-05T13:23:15.293Z,16
2017-02-05T13:24:23.389Z,16
2017-02-05T13:25:31.472Z,16
2017-02-05T13:26:39.562Z,16
2017-02-05T13:27:47.649Z,16
2017-02-05T13:28:55.727Z,16
2017-02-05T13:30:03.817Z,16
2017-02-05T13:31:11.903Z,20
2017-02-05T13:32:19.992Z,16
2017-02-05T13:33:28.080Z,20
2017-02-05T13:34:36.171Z,16
2017-02-05T13:35:44.254Z,20
2017-02-05T13:36:52.339Z,20
2017-02-05T13:38:00.432Z,20
2017-02-05T13:39:08.525Z,20
2017-02-05T13:40:16.612Z,20
2017-02-05T13:41:24.695Z,20
2017-02-05T13:42:32.790Z,20
2017-02-05T13:43:40.881Z,20
2017-02-05T13:44:48.968Z,20
2017-02-05T13:45:57.052Z,16
2017-02-05T13:47:05.140Z,20
2017-02-05T13:48:13.223Z,16
2017-02-05T13:49:21.311Z,16
2017-02-05T13:50:29.405Z,16
2017-02-05T13:51:37.489Z,16
2017-02-05T13:52:45.573Z,20
2017-02-05T13:53:53.661Z,20
2017-02-05T13:55:01.745Z,16
2017-02-05T13:56:09.834Z,16
2017-02-05T13:57:17.918Z,16
2017-02-05T13:58:26.032Z,16
2017-02-05T13:59:34.094Z,12
2017-02-05T14:00:42.179Z,12
2017-02-05T14:01:50.266Z,12
2017-02-05T14:02:58.357Z,16
2017-02-05T14:04:06.435Z,12
2017-02-05T14:05:14.522Z,12
2017-02-05T14:06:22.614Z,12
2017-02-05T14:07:30.702Z,12
2017-02-05T14:08:38.787Z,8
2017-02-05T14:09:46.872Z,8
2017-02-05T14:10:54.956Z,8
2017-02-05T14:12:03.045Z,12
2017-02-05T14:13:11.129Z,12
2017-02-05T14:14:19.216Z,12
2017-02-05T14:15:27.306Z,12
2017-02-05T14:16:35.386Z,12
2017-02-05T14:17:43.483Z,12
2017-02-05T14:18:51.833Z,12
2017-02-05T14:19:59.658Z,12
2017-02-05T14:21:07.738Z,12
2017-02-05T14:22:15.834Z,12
2017-02-05T14:23:23.923Z,16
2017-02-05T14:24:32.007Z,12
2017-02-05T14:25:40.095Z,8
2017-02-05T14:26:48.180Z,12
2017-02-05T14:27:56.265Z,8
2017-02-05T14:29:04.357Z,8
2017-02-05T14:30:12.459Z,8
2017-02-05T14:31:20.538Z,12
2017-02-05T14:32:28.618Z,8
2017-02-05T14:33:36.708Z,12
2017-02-05T14:34:44.797Z,8
2017-02-05T14:35:52.880Z,8
2017-02-05T14:37:00.969Z,8
2017-02-05T14:38:09.055Z,8
2017-02-05T14:39:17.140Z,4
2017-02-05T14:40:25.240Z,8
2017-02-05T14:41:33.321Z,8
2017-02-05T14:42:41.409Z,8
2017-02-05T14:43:49.505Z,8
2017-02-05T14:44:57.684Z,8
2017-02-05T14:46:05.682Z,8
2017-02-05T14:47:13.774Z,4
2017-02-05T14:48:21.857Z,8
2017-02-05T14:49:29.953Z,8
2017-02-05T14:50:38.041Z,8
2017-02-05T14:51:46.127Z,8
2017-02-05T14:52:54.217Z,8
2017-02-05T14:54:02.305Z,8
2017-02-05T14:55:10.390Z,8
2017-02-05T14:56:18.474Z,8
2017-02-05T14:57:26.566Z,8
2017-02-05T14:58:34.652Z,8
2017-02-05T14:59:42.734Z,8
2017-02-05T15:00:50.823Z,8
2017-02-05T15:01:58.996Z,8
2017-02-05T15:03:06.993Z,8
2017-02-05T15:04:15.080Z,8
2017-02-05T15:05:23.172Z,8
2017-02-05T15:06:31.261Z,8
2017-02-05T15:07:39.350Z,8
2017-02-05T15:08:47.439Z,8
2017-02-05T15:09:55.523Z,8
2017-02-05T15:11:03.613Z,4
2017-02-05T15:12:11.699Z,4
2017-02-05T15:13:19.787Z,4
2017-02-05T15:14:27.872Z,8
2017-02-05T15:15:35.963Z,4
2017-02-05T15:16:44.055Z,4
2017-02-05T15:17:52.140Z,8
2017-02-05T15:19:00.225Z,4
2017-02-05T15:20:08.310Z,4
2017-02-05T15:21:16.402Z,4
2017-02-05T15:22:24.488Z,4
2017-02-05T15:23:32.570Z,4
2017-02-05T15:24:40.662Z,4
2017-02-05T15:25:48.747Z,4
2017-02-05T15:26:56.829Z,4
2017-02-05T15:28:04.916Z,4
2017-02-05T15:29:13.009Z,4
2017-02-05T15:30:21.100Z,4
2017-02-05T15:31:29.178Z,4
2017-02-05T15:32:37.271Z,0
2017-02-05T15:33:45.369Z,0
2017-02-05T15:34:53.455Z,0
2017-02-05T15:36:01.539Z,4
2017-02-05T15:37:09.629Z,4
2017-02-05T15:38:17.715Z,4
2017-02-05T15:39:25.802Z,4
2017-02-05T15:40:33.891Z,4
2017-02-05T15:41:41.982Z,0
2017-02-05T15:42:50.070Z,0
2017-02-05T15:43:58.158Z,0
2017-02-05T15:45:06.250Z,0
2017-02-05T15:46:14.335Z,0
2017-02-05T15:47:22.419Z,0
2017-02-05T15:48:30.511Z,0
2017-02-05T15:49:38.597Z,0
2017-02-05T15:50:46.676Z,0
2017-02-05T15:51:54.769Z,0
2017-02-05T15:53:02.859Z,0
2017-02-05T15:54:10.945Z,0
2017-02-05T15:55:19.031Z,4
2017-02-05T15:56:27.130Z,4
2017-02-05T15:57:35.215Z,4
2017-02-05T15:58:43.298Z,4
2017-02-05T15:59:51.388Z,4
2017-02-05T16:00:59.480Z,0
2017-02-05T16:02:07.566Z,0
2017-02-05T16:03:15.654Z,0
2017-02-05T16:04:23.744Z,0
2017-02-05T16:05:31.835Z,0
2017-02-05T16:06:39.918Z,0
2017-02-05T16:07:48.008Z,0
2017-02-05T16:08:56.094Z,0
2017-02-05T16:10:04.180Z,0
2017-02-05T16:11:12.265Z,0
2017-02-05T16:12:20.355Z,0
2017-02-05T16:13:28.450Z,0
2017-02-05T16:14:36.540Z,0
2017-02-05T16:15:44.644Z,0
2017-02-05T16:16:52.723Z,0
2017-02-05T16:18:00.810Z,0
2017-02-05T16:19:08.898Z,0
2017-02-05T16:20:16.989Z,0
2017-02-05T16:21:25.079Z,0
2017-02-05T16:22:33.163Z,0
2017-02-05T16:23:41.258Z,0
2017-02-05T16:24:49.346Z,0
2017-02-05T16:25:57.436Z,0
2017-02-05T16:27:05.525Z,0
2017-02-05T16:28:13.611Z,0
2017-02-05T16:29:21.698Z,0
2017-02-05T16:30:29.781Z,0
2017-02-05T16:31:37.875Z,0
2017-02-05T16:32:45.961Z,0
2017-02-05T16:33:54.048Z,0
2017-02-05T16:35:02.131Z,0
2017-02-05T16:36:10.228Z,0